sensor_id;sensor_type;location;lat;lon;timestamp;P1;durP1;ratioP1;P2;durP2;ratioP2
40367;SDS011;26075;43.320;21.920;2023-08-31T00:00:13;11.50;;;3.13;;
40367;SDS011;26075;43.320;21.920;2023-08-31T00:05:15;6.25;;;2.63;;
40367;SDS011;26075;43.320;21.920;2023-08-31T00:10:22;7.68;;;2.90;;
40367;SDS011;26075;43.320;21.920;2023-08-31T00:15:23;9.70;;;3.03;;
40367;SDS011;26075;43.320;21.920;2023-08-31T00:20:26;10.98;;;3.22;;
40367;SDS011;26075;43.320;21.920;2023-08-31T00:25:30;9.40;;;3.92;;
40367;SDS011;26075;43.320;21.920;2023-08-31T00:30:31;7.28;;;2.95;;
40367;SDS011;26075;43.320;21.920;2023-08-31T00:35:33;10.98;;;3.50;;
40367;SDS011;26075;43.320;21.920;2023-08-31T00:40:38;7.60;;;3.05;;
40367;SDS011;26075;43.320;21.920;2023-08-31T00:45:41;6.72;;;3.00;;
40367;SDS011;26075;43.320;21.920;2023-08-31T00:50:45;8.00;;;3.50;;
40367;SDS011;26075;43.320;21.920;2023-08-31T00:55:46;7.33;;;3.17;;
40367;SDS011;26075;43.320;21.920;2023-08-31T01:06:54;11.02;;;3.00;;
40367;SDS011;26075;43.320;21.920;2023-08-31T01:11:57;5.63;;;2.78;;
40367;SDS011;26075;43.320;21.920;2023-08-31T01:17:03;7.97;;;2.78;;
40367;SDS011;26075;43.320;21.920;2023-08-31T01:22:05;7.93;;;2.58;;
40367;SDS011;26075;43.320;21.920;2023-08-31T01:27:11;9.55;;;3.28;;
40367;SDS011;26075;43.320;21.920;2023-08-31T01:32:12;7.43;;;2.40;;
40367;SDS011;26075;43.320;21.920;2023-08-31T01:37:15;8.32;;;3.25;;
40367;SDS011;26075;43.320;21.920;2023-08-31T01:42:21;7.80;;;3.40;;
40367;SDS011;26075;43.320;21.920;2023-08-31T01:47:27;11.10;;;2.90;;
40367;SDS011;26075;43.320;21.920;2023-08-31T01:52:28;11.88;;;4.80;;
40367;SDS011;26075;43.320;21.920;2023-08-31T01:57:29;6.80;;;2.53;;
40367;SDS011;26075;43.320;21.920;2023-08-31T02:02:32;6.47;;;3.05;;
40367;SDS011;26075;43.320;21.920;2023-08-31T02:12:48;8.02;;;3.05;;
40367;SDS011;26075;43.320;21.920;2023-08-31T02:17:49;7.45;;;3.00;;
40367;SDS011;26075;43.320;21.920;2023-08-31T02:22:50;9.13;;;2.85;;
40367;SDS011;26075;43.320;21.920;2023-08-31T02:27:53;7.82;;;2.50;;
40367;SDS011;26075;43.320;21.920;2023-08-31T02:32:54;6.50;;;2.70;;
40367;SDS011;26075;43.320;21.920;2023-08-31T02:37:55;8.32;;;2.55;;
40367;SDS011;26075;43.320;21.920;2023-08-31T02:42:55;7.30;;;2.42;;
40367;SDS011;26075;43.320;21.920;2023-08-31T02:48:03;7.95;;;2.50;;
40367;SDS011;26075;43.320;21.920;2023-08-31T02:53:06;6.15;;;2.83;;
40367;SDS011;26075;43.320;21.920;2023-08-31T02:58:07;8.43;;;2.97;;
40367;SDS011;26075;43.320;21.920;2023-08-31T03:03:08;9.80;;;2.97;;
40367;SDS011;26075;43.320;21.920;2023-08-31T03:08:09;8.02;;;2.90;;
40367;SDS011;26075;43.320;21.920;2023-08-31T03:13:10;7.68;;;3.00;;
40367;SDS011;26075;43.320;21.920;2023-08-31T03:18:10;12.70;;;2.85;;
40367;SDS011;26075;43.320;21.920;2023-08-31T03:23:11;8.85;;;3.38;;
40367;SDS011;26075;43.320;21.920;2023-08-31T03:28:12;8.23;;;2.85;;
40367;SDS011;26075;43.320;21.920;2023-08-31T03:33:13;7.68;;;2.97;;
40367;SDS011;26075;43.320;21.920;2023-08-31T03:38:13;12.15;;;3.30;;
40367;SDS011;26075;43.320;21.920;2023-08-31T03:43:14;6.30;;;3.40;;
40367;SDS011;26075;43.320;21.920;2023-08-31T03:48:15;7.93;;;3.22;;
40367;SDS011;26075;43.320;21.920;2023-08-31T03:53:28;9.25;;;3.03;;
40367;SDS011;26075;43.320;21.920;2023-08-31T03:58:29;7.82;;;3.28;;
40367;SDS011;26075;43.320;21.920;2023-08-31T04:03:30;6.50;;;2.85;;
40367;SDS011;26075;43.320;21.920;2023-08-31T04:13:54;8.90;;;3.03;;
40367;SDS011;26075;43.320;21.920;2023-08-31T04:24:21;9.80;;;3.30;;
40367;SDS011;26075;43.320;21.920;2023-08-31T04:34:49;12.05;;;3.90;;
40367;SDS011;26075;43.320;21.920;2023-08-31T04:39:51;11.52;;;3.72;;
40367;SDS011;26075;43.320;21.920;2023-08-31T04:44:52;9.80;;;4.13;;
40367;SDS011;26075;43.320;21.920;2023-08-31T04:49:52;8.45;;;3.78;;
40367;SDS011;26075;43.320;21.920;2023-08-31T04:54:53;8.38;;;3.42;;
40367;SDS011;26075;43.320;21.920;2023-08-31T04:59:54;8.43;;;3.58;;
40367;SDS011;26075;43.320;21.920;2023-08-31T05:04:55;7.47;;;2.83;;
40367;SDS011;26075;43.320;21.920;2023-08-31T05:09:58;10.65;;;3.38;;
40367;SDS011;26075;43.320;21.920;2023-08-31T05:14:59;11.23;;;3.67;;
40367;SDS011;26075;43.320;21.920;2023-08-31T05:20:00;10.88;;;3.88;;
40367;SDS011;26075;43.320;21.920;2023-08-31T05:25:01;8.13;;;3.80;;
40367;SDS011;26075;43.320;21.920;2023-08-31T05:30:02;14.27;;;3.80;;
40367;SDS011;26075;43.320;21.920;2023-08-31T05:35:03;8.10;;;3.28;;
40367;SDS011;26075;43.320;21.920;2023-08-31T05:40:04;10.45;;;3.78;;
40367;SDS011;26075;43.320;21.920;2023-08-31T05:45:10;11.05;;;3.83;;
40367;SDS011;26075;43.320;21.920;2023-08-31T05:50:11;10.07;;;3.22;;
40367;SDS011;26075;43.320;21.920;2023-08-31T05:55:12;12.73;;;3.60;;
40367;SDS011;26075;43.320;21.920;2023-08-31T06:00:13;11.57;;;4.45;;
40367;SDS011;26075;43.320;21.920;2023-08-31T06:05:14;9.45;;;4.80;;
40367;SDS011;26075;43.320;21.920;2023-08-31T06:10:18;7.68;;;3.45;;
40367;SDS011;26075;43.320;21.920;2023-08-31T06:15:19;9.63;;;3.42;;
40367;SDS011;26075;43.320;21.920;2023-08-31T06:20:26;8.70;;;2.88;;
40367;SDS011;26075;43.320;21.920;2023-08-31T06:25:27;10.02;;;3.10;;
40367;SDS011;26075;43.320;21.920;2023-08-31T06:30:29;8.68;;;2.80;;
40367;SDS011;26075;43.320;21.920;2023-08-31T06:35:30;7.30;;;2.67;;
40367;SDS011;26075;43.320;21.920;2023-08-31T06:40:31;5.93;;;2.72;;
40367;SDS011;26075;43.320;21.920;2023-08-31T06:45:32;17.50;;;3.58;;
40367;SDS011;26075;43.320;21.920;2023-08-31T06:50:34;8.50;;;2.92;;
40367;SDS011;26075;43.320;21.920;2023-08-31T06:55:37;7.78;;;3.13;;
40367;SDS011;26075;43.320;21.920;2023-08-31T07:00:38;6.72;;;3.20;;
40367;SDS011;26075;43.320;21.920;2023-08-31T07:05:42;10.43;;;4.32;;
40367;SDS011;26075;43.320;21.920;2023-08-31T07:10:43;15.10;;;5.30;;
40367;SDS011;26075;43.320;21.920;2023-08-31T07:15:44;10.63;;;4.15;;
40367;SDS011;26075;43.320;21.920;2023-08-31T07:20:56;12.05;;;4.93;;
40367;SDS011;26075;43.320;21.920;2023-08-31T07:25:57;11.68;;;5.10;;
40367;SDS011;26075;43.320;21.920;2023-08-31T07:31:03;14.82;;;4.30;;
40367;SDS011;26075;43.320;21.920;2023-08-31T07:41:06;14.68;;;4.03;;
40367;SDS011;26075;43.320;21.920;2023-08-31T07:46:07;9.68;;;3.53;;
40367;SDS011;26075;43.320;21.920;2023-08-31T07:51:08;15.00;;;3.70;;
40367;SDS011;26075;43.320;21.920;2023-08-31T07:56:09;14.32;;;4.47;;
40367;SDS011;26075;43.320;21.920;2023-08-31T08:01:10;7.53;;;3.63;;
40367;SDS011;26075;43.320;21.920;2023-08-31T08:06:12;9.25;;;3.33;;
40367;SDS011;26075;43.320;21.920;2023-08-31T08:11:27;9.20;;;3.20;;
40367;SDS011;26075;43.320;21.920;2023-08-31T08:16:28;10.43;;;3.33;;
40367;SDS011;26075;43.320;21.920;2023-08-31T08:21:29;10.55;;;2.58;;
40367;SDS011;26075;43.320;21.920;2023-08-31T08:26:30;7.28;;;3.33;;
40367;SDS011;26075;43.320;21.920;2023-08-31T08:31:36;7.47;;;2.88;;
40367;SDS011;26075;43.320;21.920;2023-08-31T08:36:36;9.07;;;3.40;;
40367;SDS011;26075;43.320;21.920;2023-08-31T08:41:37;7.90;;;3.05;;
40367;SDS011;26075;43.320;21.920;2023-08-31T08:46:39;9.52;;;3.65;;
40367;SDS011;26075;43.320;21.920;2023-08-31T08:51:41;8.27;;;3.00;;
40367;SDS011;26075;43.320;21.920;2023-08-31T08:56:42;8.25;;;3.40;;
40367;SDS011;26075;43.320;21.920;2023-08-31T09:01:43;8.57;;;3.75;;
40367;SDS011;26075;43.320;21.920;2023-08-31T09:06:44;6.60;;;3.05;;
40367;SDS011;26075;43.320;21.920;2023-08-31T09:12:05;6.78;;;3.40;;
40367;SDS011;26075;43.320;21.920;2023-08-31T09:17:07;6.93;;;2.75;;
40367;SDS011;26075;43.320;21.920;2023-08-31T09:22:10;8.13;;;3.60;;
40367;SDS011;26075;43.320;21.920;2023-08-31T09:27:11;8.20;;;3.28;;
40367;SDS011;26075;43.320;21.920;2023-08-31T09:32:18;6.85;;;3.50;;
40367;SDS011;26075;43.320;21.920;2023-08-31T09:37:19;5.90;;;2.58;;
40367;SDS011;26075;43.320;21.920;2023-08-31T09:42:20;7.13;;;3.05;;
40367;SDS011;26075;43.320;21.920;2023-08-31T09:47:20;7.45;;;3.17;;
40367;SDS011;26075;43.320;21.920;2023-08-31T09:52:22;7.13;;;3.65;;
40367;SDS011;26075;43.320;21.920;2023-08-31T09:57:23;8.80;;;4.32;;
40367;SDS011;26075;43.320;21.920;2023-08-31T10:02:33;11.48;;;3.30;;
40367;SDS011;26075;43.320;21.920;2023-08-31T10:07:35;6.88;;;3.28;;
40367;SDS011;26075;43.320;21.920;2023-08-31T10:12:36;5.47;;;3.20;;
40367;SDS011;26075;43.320;21.920;2023-08-31T10:17:45;7.78;;;3.03;;
40367;SDS011;26075;43.320;21.920;2023-08-31T10:22:46;12.40;;;4.40;;
40367;SDS011;26075;43.320;21.920;2023-08-31T10:27:49;7.90;;;2.92;;
40367;SDS011;26075;43.320;21.920;2023-08-31T10:33:26;6.82;;;3.58;;
40367;SDS011;26075;43.320;21.920;2023-08-31T10:38:29;8.68;;;3.35;;
40367;SDS011;26075;43.320;21.920;2023-08-31T10:48:58;7.80;;;2.88;;
40367;SDS011;26075;43.320;21.920;2023-08-31T10:54:20;9.30;;;2.83;;
40367;SDS011;26075;43.320;21.920;2023-08-31T10:59:25;8.50;;;2.45;;
40367;SDS011;26075;43.320;21.920;2023-08-31T11:04:53;12.00;;;3.33;;
40367;SDS011;26075;43.320;21.920;2023-08-31T11:10:11;7.85;;;2.90;;
40367;SDS011;26075;43.320;21.920;2023-08-31T11:20:23;6.18;;;2.72;;
40367;SDS011;26075;43.320;21.920;2023-08-31T11:25:31;7.43;;;2.80;;
40367;SDS011;26075;43.320;21.920;2023-08-31T11:30:32;6.72;;;2.92;;
40367;SDS011;26075;43.320;21.920;2023-08-31T11:35:35;5.63;;;2.42;;
40367;SDS011;26075;43.320;21.920;2023-08-31T11:40:37;7.47;;;2.60;;
40367;SDS011;26075;43.320;21.920;2023-08-31T11:45:37;6.43;;;2.55;;
40367;SDS011;26075;43.320;21.920;2023-08-31T11:50:40;9.43;;;2.97;;
40367;SDS011;26075;43.320;21.920;2023-08-31T11:55:51;5.82;;;3.03;;
40367;SDS011;26075;43.320;21.920;2023-08-31T12:01:02;7.18;;;2.70;;
40367;SDS011;26075;43.320;21.920;2023-08-31T12:06:03;7.85;;;2.80;;
40367;SDS011;26075;43.320;21.920;2023-08-31T12:11:08;10.40;;;2.72;;
40367;SDS011;26075;43.320;21.920;2023-08-31T12:16:12;12.47;;;2.60;;
40367;SDS011;26075;43.320;21.920;2023-08-31T12:21:13;8.13;;;3.80;;
40367;SDS011;26075;43.320;21.920;2023-08-31T12:26:14;7.55;;;3.10;;
40367;SDS011;26075;43.320;21.920;2023-08-31T12:31:15;7.07;;;2.60;;
40367;SDS011;26075;43.320;21.920;2023-08-31T12:36:16;7.07;;;2.58;;
40367;SDS011;26075;43.320;21.920;2023-08-31T12:41:17;6.22;;;2.90;;
40367;SDS011;26075;43.320;21.920;2023-08-31T12:46:20;5.00;;;2.50;;
40367;SDS011;26075;43.320;21.920;2023-08-31T12:51:20;8.18;;;3.20;;
40367;SDS011;26075;43.320;21.920;2023-08-31T12:56:21;9.65;;;2.90;;
40367;SDS011;26075;43.320;21.920;2023-08-31T13:01:24;7.53;;;2.83;;
40367;SDS011;26075;43.320;21.920;2023-08-31T13:06:26;5.82;;;2.75;;
40367;SDS011;26075;43.320;21.920;2023-08-31T13:11:28;8.15;;;2.70;;
40367;SDS011;26075;43.320;21.920;2023-08-31T13:16:29;7.70;;;3.00;;
40367;SDS011;26075;43.320;21.920;2023-08-31T13:21:30;5.90;;;2.90;;
40367;SDS011;26075;43.320;21.920;2023-08-31T13:26:31;9.32;;;3.80;;
40367;SDS011;26075;43.320;21.920;2023-08-31T13:36:57;5.78;;;2.90;;
40367;SDS011;26075;43.320;21.920;2023-08-31T13:41:58;8.07;;;3.50;;
40367;SDS011;26075;43.320;21.920;2023-08-31T13:46:59;10.32;;;3.63;;
40367;SDS011;26075;43.320;21.920;2023-08-31T13:51:59;8.82;;;2.80;;
40367;SDS011;26075;43.320;21.920;2023-08-31T13:57:00;8.63;;;2.53;;
40367;SDS011;26075;43.320;21.920;2023-08-31T14:02:03;7.10;;;3.05;;
40367;SDS011;26075;43.320;21.920;2023-08-31T14:07:04;14.20;;;3.30;;
40367;SDS011;26075;43.320;21.920;2023-08-31T14:12:05;7.82;;;3.00;;
40367;SDS011;26075;43.320;21.920;2023-08-31T14:17:06;9.20;;;3.15;;
40367;SDS011;26075;43.320;21.920;2023-08-31T14:22:07;9.63;;;4.15;;
40367;SDS011;26075;43.320;21.920;2023-08-31T14:27:09;5.55;;;3.00;;
40367;SDS011;26075;43.320;21.920;2023-08-31T14:32:10;7.72;;;3.97;;
40367;SDS011;26075;43.320;21.920;2023-08-31T14:37:12;15.88;;;7.80;;
40367;SDS011;26075;43.320;21.920;2023-08-31T14:42:13;12.68;;;5.95;;
40367;SDS011;26075;43.320;21.920;2023-08-31T14:47:15;8.15;;;4.30;;
40367;SDS011;26075;43.320;21.920;2023-08-31T14:52:16;10.50;;;4.47;;
40367;SDS011;26075;43.320;21.920;2023-08-31T14:57:17;16.65;;;5.50;;
40367;SDS011;26075;43.320;21.920;2023-08-31T15:02:19;10.13;;;5.00;;
40367;SDS011;26075;43.320;21.920;2023-08-31T15:07:21;13.02;;;4.95;;
40367;SDS011;26075;43.320;21.920;2023-08-31T15:12:22;11.80;;;4.65;;
40367;SDS011;26075;43.320;21.920;2023-08-31T15:17:26;11.35;;;4.30;;
40367;SDS011;26075;43.320;21.920;2023-08-31T15:22:28;14.93;;;4.43;;
40367;SDS011;26075;43.320;21.920;2023-08-31T15:27:29;17.35;;;9.38;;
40367;SDS011;26075;43.320;21.920;2023-08-31T15:32:29;15.18;;;8.82;;
40367;SDS011;26075;43.320;21.920;2023-08-31T15:37:31;15.93;;;8.23;;
40367;SDS011;26075;43.320;21.920;2023-08-31T15:42:32;9.77;;;5.53;;
40367;SDS011;26075;43.320;21.920;2023-08-31T15:47:33;7.82;;;4.97;;
40367;SDS011;26075;43.320;21.920;2023-08-31T15:52:33;10.57;;;5.72;;
40367;SDS011;26075;43.320;21.920;2023-08-31T15:57:35;12.27;;;6.07;;
40367;SDS011;26075;43.320;21.920;2023-08-31T16:02:37;8.70;;;5.15;;
40367;SDS011;26075;43.320;21.920;2023-08-31T16:07:40;12.50;;;4.95;;
40367;SDS011;26075;43.320;21.920;2023-08-31T16:12:41;7.70;;;4.00;;
40367;SDS011;26075;43.320;21.920;2023-08-31T16:17:57;7.60;;;3.67;;
40367;SDS011;26075;43.320;21.920;2023-08-31T16:23:04;11.45;;;3.33;;
40367;SDS011;26075;43.320;21.920;2023-08-31T16:28:04;7.28;;;3.10;;
40367;SDS011;26075;43.320;21.920;2023-08-31T16:33:05;7.18;;;2.75;;
40367;SDS011;26075;43.320;21.920;2023-08-31T16:38:06;7.05;;;3.28;;
40367;SDS011;26075;43.320;21.920;2023-08-31T16:43:07;6.47;;;2.70;;
40367;SDS011;26075;43.320;21.920;2023-08-31T16:48:08;10.70;;;3.08;;
40367;SDS011;26075;43.320;21.920;2023-08-31T16:53:09;11.50;;;3.83;;
40367;SDS011;26075;43.320;21.920;2023-08-31T16:58:10;8.73;;;4.28;;
40367;SDS011;26075;43.320;21.920;2023-08-31T17:03:11;10.63;;;4.60;;
40367;SDS011;26075;43.320;21.920;2023-08-31T17:08:12;15.25;;;5.35;;
40367;SDS011;26075;43.320;21.920;2023-08-31T17:13:13;17.40;;;5.88;;
40367;SDS011;26075;43.320;21.920;2023-08-31T17:23:36;13.07;;;5.53;;
40367;SDS011;26075;43.320;21.920;2023-08-31T17:28:37;12.50;;;7.50;;
40367;SDS011;26075;43.320;21.920;2023-08-31T17:33:38;15.85;;;6.90;;
40367;SDS011;26075;43.320;21.920;2023-08-31T17:38:41;11.48;;;6.68;;
40367;SDS011;26075;43.320;21.920;2023-08-31T17:43:42;14.07;;;6.10;;
40367;SDS011;26075;43.320;21.920;2023-08-31T17:48:42;17.40;;;6.40;;
40367;SDS011;26075;43.320;21.920;2023-08-31T17:53:45;15.82;;;6.05;;
40367;SDS011;26075;43.320;21.920;2023-08-31T17:58:45;15.75;;;6.60;;
40367;SDS011;26075;43.320;21.920;2023-08-31T18:03:46;14.32;;;6.18;;
40367;SDS011;26075;43.320;21.920;2023-08-31T18:08:47;13.27;;;6.35;;
40367;SDS011;26075;43.320;21.920;2023-08-31T18:13:48;13.40;;;6.60;;
40367;SDS011;26075;43.320;21.920;2023-08-31T18:18:50;12.15;;;5.95;;
40367;SDS011;26075;43.320;21.920;2023-08-31T18:23:51;15.65;;;6.32;;
40367;SDS011;26075;43.320;21.920;2023-08-31T18:29:03;12.60;;;5.28;;
40367;SDS011;26075;43.320;21.920;2023-08-31T18:34:04;12.88;;;5.97;;
40367;SDS011;26075;43.320;21.920;2023-08-31T18:39:05;14.88;;;6.72;;
40367;SDS011;26075;43.320;21.920;2023-08-31T18:44:07;13.73;;;6.93;;
40367;SDS011;26075;43.320;21.920;2023-08-31T18:49:08;13.90;;;6.20;;
40367;SDS011;26075;43.320;21.920;2023-08-31T18:54:10;6.30;;;3.00;;
40367;SDS011;26075;43.320;21.920;2023-08-31T18:59:10;8.82;;;3.42;;
40367;SDS011;26075;43.320;21.920;2023-08-31T19:10:09;12.18;;;4.45;;
40367;SDS011;26075;43.320;21.920;2023-08-31T19:15:11;13.48;;;4.38;;
40367;SDS011;26075;43.320;21.920;2023-08-31T19:20:12;11.18;;;4.85;;
40367;SDS011;26075;43.320;21.920;2023-08-31T19:25:16;9.93;;;4.40;;
40367;SDS011;26075;43.320;21.920;2023-08-31T19:30:19;10.98;;;4.53;;
40367;SDS011;26075;43.320;21.920;2023-08-31T19:40:58;8.70;;;5.05;;
40367;SDS011;26075;43.320;21.920;2023-08-31T19:51:56;11.07;;;4.00;;
40367;SDS011;26075;43.320;21.920;2023-08-31T19:56:57;9.45;;;4.60;;
40367;SDS011;26075;43.320;21.920;2023-08-31T20:01:58;8.48;;;4.10;;
40367;SDS011;26075;43.320;21.920;2023-08-31T20:06:59;8.95;;;4.43;;
40367;SDS011;26075;43.320;21.920;2023-08-31T20:12:01;8.68;;;3.85;;
40367;SDS011;26075;43.320;21.920;2023-08-31T20:17:01;9.90;;;3.72;;
40367;SDS011;26075;43.320;21.920;2023-08-31T20:22:03;7.45;;;4.10;;
40367;SDS011;26075;43.320;21.920;2023-08-31T20:27:04;10.48;;;4.95;;
40367;SDS011;26075;43.320;21.920;2023-08-31T20:32:05;9.77;;;6.30;;
40367;SDS011;26075;43.320;21.920;2023-08-31T20:49:00;12.95;;;5.38;;
40367;SDS011;26075;43.320;21.920;2023-08-31T20:59:58;9.80;;;4.97;;
40367;SDS011;26075;43.320;21.920;2023-08-31T21:05:00;13.65;;;5.05;;
40367;SDS011;26075;43.320;21.920;2023-08-31T21:10:03;12.75;;;5.20;;
40367;SDS011;26075;43.320;21.920;2023-08-31T21:15:05;9.77;;;4.72;;
40367;SDS011;26075;43.320;21.920;2023-08-31T21:20:06;7.65;;;4.00;;
40367;SDS011;26075;43.320;21.920;2023-08-31T21:25:08;9.25;;;5.07;;
40367;SDS011;26075;43.320;21.920;2023-08-31T21:30:09;14.57;;;4.78;;
40367;SDS011;26075;43.320;21.920;2023-08-31T21:35:10;10.02;;;4.65;;
40367;SDS011;26075;43.320;21.920;2023-08-31T21:40:10;15.00;;;4.93;;
40367;SDS011;26075;43.320;21.920;2023-08-31T21:45:12;12.65;;;4.63;;
40367;SDS011;26075;43.320;21.920;2023-08-31T21:56:10;12.88;;;4.28;;
40367;SDS011;26075;43.320;21.920;2023-08-31T22:01:11;11.07;;;4.78;;
40367;SDS011;26075;43.320;21.920;2023-08-31T22:06:12;13.05;;;4.57;;
40367;SDS011;26075;43.320;21.920;2023-08-31T22:11:13;9.20;;;4.00;;
40367;SDS011;26075;43.320;21.920;2023-08-31T22:16:15;11.40;;;4.55;;
40367;SDS011;26075;43.320;21.920;2023-08-31T22:21:15;7.40;;;3.35;;
40367;SDS011;26075;43.320;21.920;2023-08-31T22:26:17;8.18;;;4.55;;
40367;SDS011;26075;43.320;21.920;2023-08-31T22:31:18;7.57;;;4.00;;
40367;SDS011;26075;43.320;21.920;2023-08-31T22:36:19;6.70;;;3.63;;
40367;SDS011;26075;43.320;21.920;2023-08-31T22:41:34;8.10;;;4.22;;
40367;SDS011;26075;43.320;21.920;2023-08-31T22:46:35;6.85;;;3.53;;
40367;SDS011;26075;43.320;21.920;2023-08-31T22:51:36;8.90;;;3.50;;
40367;SDS011;26075;43.320;21.920;2023-08-31T22:56:37;6.45;;;3.38;;
40367;SDS011;26075;43.320;21.920;2023-08-31T23:01:37;9.45;;;3.70;;
40367;SDS011;26075;43.320;21.920;2023-08-31T23:06:39;5.90;;;3.80;;
40367;SDS011;26075;43.320;21.920;2023-08-31T23:11:40;5.93;;;3.70;;
40367;SDS011;26075;43.320;21.920;2023-08-31T23:16:41;7.38;;;3.58;;
40367;SDS011;26075;43.320;21.920;2023-08-31T23:21:41;6.90;;;3.50;;
40367;SDS011;26075;43.320;21.920;2023-08-31T23:26:43;8.27;;;3.92;;
40367;SDS011;26075;43.320;21.920;2023-08-31T23:31:44;6.45;;;3.75;;
40367;SDS011;26075;43.320;21.920;2023-08-31T23:36:45;7.32;;;4.25;;
40367;SDS011;26075;43.320;21.920;2023-08-31T23:41:46;5.80;;;3.75;;
40367;SDS011;26075;43.320;21.920;2023-08-31T23:46:46;6.18;;;3.88;;
40367;SDS011;26075;43.320;21.920;2023-08-31T23:51:47;6.72;;;3.88;;
40367;SDS011;26075;43.320;21.920;2023-08-31T23:56:48;6.80;;;3.70;;
